Time;durP1;ratioP1;P1;durP2;ratioP2;P2;SDS_P1;SDS_P2;PMS_P1;PMS_P2;Temp;Humidity;BMP_temperature;BMP_pressure;BME280_temperature;BME280_humidity;BME280_pressure;Samples;Min_cycle;Max_cycle;Signal;HPM_P1;HPM_P2
2021/12/08 00:01:13;;;;;;;13.57;4.10;;;;;;;;;;5050153;28;20025;-77
2021/12/08 00:03:44;;;;;;;12.45;4.07;;;5.00;99.90;;;;;;5056004;28;20037;-76
2021/12/08 00:06:13;;;;;;;10.02;4.00;;;4.90;99.90;;;;;;5054962;28;20070;-76
2021/12/08 00:09:26;;;;;;;11.10;4.10;;;4.90;99.90;;;;;;5053864;28;20029;-76
2021/12/08 00:14:42;;;;;;;12.52;5.13;;;4.80;99.90;;;;;;5055350;28;20044;-77
2021/12/08 00:17:12;;;;;;;11.77;4.55;;;4.90;99.90;;;;;;5055276;28;20033;-77
2021/12/08 00:19:38;;;;;;;14.57;5.30;;;5.00;99.90;;;;;;5055542;28;20025;-77
2021/12/08 00:22:06;;;;;;;9.93;4.97;;;4.90;99.90;;;;;;5055327;28;20088;-76
2021/12/08 00:24:35;;;;;;;11.25;4.85;;;4.90;99.90;;;;;;5037535;28;20034;-77
2021/12/08 00:27:24;;;;;;;14.20;5.00;;;5.00;99.90;;;;;;5033856;28;20124;-77
2021/12/08 00:29:50;;;;;;;12.55;4.82;;;5.00;99.90;;;;;;5035642;28;20029;-77
2021/12/08 00:32:21;;;;;;;21.58;6.57;;;5.00;99.90;;;;;;5035263;28;20017;-77
2021/12/08 00:34:57;;;;;;;16.58;5.22;;;5.00;99.90;;;;;;5050795;28;20025;-77
2021/12/08 00:37:27;;;;;;;9.98;5.03;;;5.00;99.90;;;;;;5055238;28;20021;-77
2021/12/08 00:39:53;;;;;;;13.23;5.28;;;5.00;99.90;;;;;;5053820;28;20029;-77
2021/12/08 00:42:22;;;;;;;11.80;4.47;;;5.00;99.90;;;;;;5055203;28;20017;-77
2021/12/08 00:44:51;;;;;;;9.88;5.07;;;5.10;99.90;;;;;;5054630;28;20045;-77
2021/12/08 00:47:17;;;;;;;13.50;5.07;;;5.10;99.90;;;;;;5054954;28;20032;-77
2021/12/08 00:49:45;;;;;;;11.70;5.00;;;5.20;99.90;;;;;;5055045;28;20017;-77
2021/12/08 00:52:14;;;;;;;13.70;5.63;;;5.10;99.90;;;;;;5055038;28;20021;-77
2021/12/08 00:54:40;;;;;;;13.13;5.65;;;5.10;99.90;;;;;;5055021;28;20133;-77
2021/12/08 00:57:10;;;;;;;9.20;5.00;;;5.10;99.90;;;;;;5054866;28;20025;-77
2021/12/08 00:59:54;;;;;;;13.00;5.55;;;5.10;99.90;;;;;;5054674;28;20052;-76
2021/12/08 01:02:23;;;;;;;13.65;5.72;;;5.10;99.90;;;;;;5054526;28;20033;-77
2021/12/08 01:04:48;;;;;;;11.82;5.10;;;5.10;99.90;;;;;;5054380;28;20040;-76
2021/12/08 01:07:17;;;;;;;12.32;5.30;;;5.10;99.90;;;;;;5053462;28;20021;-76
2021/12/08 01:09:43;;;;;;;9.40;4.90;;;5.10;99.90;;;;;;5054342;28;20028;-76
2021/12/08 01:12:12;;;;;;;9.38;5.65;;;5.10;99.90;;;;;;5054387;28;20074;-76
2021/12/08 01:14:37;;;;;;;10.63;4.38;;;5.10;99.90;;;;;;5054188;28;20028;-76
2021/12/08 01:17:09;;;;;;;14.45;5.68;;;5.20;99.90;;;;;;5054187;28;20540;-76
2021/12/08 01:19:37;;;;;;;9.60;5.82;;;5.20;99.90;;;;;;5054217;28;20446;-76
2021/12/08 01:22:03;;;;;;;13.93;5.68;;;5.20;99.90;;;;;;5054053;28;20029;-76
2021/12/08 01:24:55;;;;;;;11.52;5.45;;;5.30;99.90;;;;;;5036287;28;20033;-76
2021/12/08 01:27:20;;;;;;;10.40;4.93;;;5.40;99.90;;;;;;5032742;28;20079;-76
2021/12/08 01:29:52;;;;;;;10.73;4.80;;;5.40;99.90;;;;;;5034086;28;20029;-76
2021/12/08 01:32:22;;;;;;;10.02;5.40;;;5.40;99.90;;;;;;5034207;28;20021;-76
2021/12/08 01:34:48;;;;;;;9.65;4.60;;;5.40;99.90;;;;;;5049341;28;20037;-76
2021/12/08 01:37:16;;;;;;;15.60;5.50;;;5.40;99.90;;;;;;5053648;28;20075;-76
2021/12/08 01:39:50;;;;;;;11.88;5.10;;;5.40;99.90;;;;;;5053552;28;20025;-76
2021/12/08 01:42:25;;;;;;;12.25;5.60;;;5.50;99.90;;;;;;5053994;28;20025;-76
2021/12/08 01:47:49;;;;;;;6.35;4.72;;;5.60;99.90;;;;;;5053571;28;20083;-76
2021/12/08 01:50:18;;;;;;;12.50;7.22;;;5.60;99.90;;;;;;5047629;28;20037;-76
2021/12/08 01:52:44;;;;;;;8.45;5.55;;;5.60;99.90;;;;;;5033543;28;20117;-76
2021/12/08 01:55:10;;;;;;;12.73;6.20;;;5.60;99.90;;;;;;5033302;28;20192;-76
2021/12/08 01:57:38;;;;;;;12.73;5.63;;;5.70;99.90;;;;;;5033555;28;20079;-76
2021/12/08 02:00:14;;;;;;;10.15;5.50;;;5.70;99.90;;;;;;5033318;28;20029;-76
2021/12/08 02:02:52;;;;;;;13.20;5.85;;;5.70;99.90;;;;;;5033104;28;20060;-76
2021/12/08 02:05:26;;;;;;;12.32;6.07;;;5.80;99.90;;;;;;5033155;28;20483;-76
2021/12/08 02:07:52;;;;;;;9.90;5.00;;;5.80;99.90;;;;;;5033170;28;20052;-76
2021/12/08 02:10:28;;;;;;;9.63;5.20;;;5.90;99.90;;;;;;5031606;28;20025;-76
2021/12/08 02:12:56;;;;;;;9.00;4.68;;;5.90;99.90;;;;;;5032953;28;20022;-76
2021/12/08 02:15:31;;;;;;;10.07;5.28;;;5.90;99.90;;;;;;5033063;28;20030;-76
2021/12/08 02:17:57;;;;;;;10.30;5.28;;;5.90;99.90;;;;;;5032786;28;20495;-76
2021/12/08 02:20:43;;;;;;;14.00;5.63;;;5.90;99.90;;;;;;5032611;28;20026;-76
2021/12/08 02:23:10;;;;;;;9.68;5.25;;;5.90;99.90;;;;;;5031227;28;20029;-76
2021/12/08 02:26:06;;;;;;;14.30;6.35;;;5.90;99.90;;;;;;5032689;28;20029;-76
2021/12/08 02:28:33;;;;;;;14.25;6.20;;;6.00;99.90;;;;;;5032534;28;20514;-76
2021/12/08 02:31:11;;;;;;;9.75;5.30;;;5.90;99.90;;;;;;5032898;28;20033;-76
2021/12/08 02:50:38;;;;;;;12.48;6.63;;;5.90;99.90;;;;;;5032496;28;20083;-75
2021/12/08 02:53:10;;;;;;;15.23;6.80;;;5.90;99.90;;;;;;5032188;28;20049;-76
2021/12/08 02:55:59;;;;;;;11.30;5.97;;;5.90;99.90;;;;;;5032196;28;20108;-75
2021/12/08 02:58:41;;;;;;;11.10;6.05;;;5.80;99.90;;;;;;5032172;28;20014;-76
2021/12/08 03:01:11;;;;;;;12.38;5.97;;;5.80;99.90;;;;;;5032268;28;20371;-76
2021/12/08 03:03:40;;;;;;;11.52;6.05;;;5.70;99.90;;;;;;5032070;28;20104;-75
2021/12/08 03:06:11;;;;;;;16.33;6.57;;;5.60;99.90;;;;;;5031949;28;20057;-76
2021/12/08 03:08:37;;;;;;;17.13;6.53;;;5.50;99.90;;;;;;5031998;28;20022;-76
2021/12/08 03:11:03;;;;;;;13.50;6.72;;;5.40;99.90;;;;;;5031946;28;20029;-75
2021/12/08 03:13:34;;;;;;;10.48;6.43;;;5.40;99.90;;;;;;5032356;28;20112;-76
2021/12/08 03:16:00;;;;;;;12.68;6.43;;;5.40;99.90;;;;;;5030607;28;20407;-76
2021/12/08 03:18:34;;;;;;;15.00;6.05;;;5.40;99.90;;;;;;5031636;28;20482;-75
2021/12/08 03:21:06;;;;;;;11.93;6.18;;;5.40;99.90;;;;;;5031704;28;20029;-75
2021/12/08 03:23:56;;;;;;;15.55;6.22;;;5.40;99.90;;;;;;5031773;28;20112;-75
2021/12/08 03:26:31;;;;;;;10.82;5.45;;;5.50;99.90;;;;;;5031815;28;20375;-76
2021/12/08 03:29:04;;;;;;;9.68;4.32;;;5.60;99.90;;;;;;5032193;28;20021;-76
2021/12/08 03:31:40;;;;;;;9.65;4.72;;;5.70;99.90;;;;;;5038359;28;20033;-76
2021/12/08 03:34:09;;;;;;;8.52;4.28;;;5.70;99.90;;;;;;5047677;28;20021;-76
2021/12/08 03:36:37;;;;;;;8.45;3.60;;;5.80;99.90;;;;;;5057968;28;20095;-76
2021/12/08 03:39:04;;;;;;;13.70;4.20;;;5.90;99.90;;;;;;5058308;28;20039;-76
2021/12/08 03:41:33;;;;;;;9.55;4.20;;;6.00;99.90;;;;;;5058345;28;20025;-76
2021/12/08 03:44:03;;;;;;;10.18;3.90;;;5.90;99.90;;;;;;5058667;28;20203;-76
2021/12/08 03:46:41;;;;;;;8.85;3.75;;;5.90;99.90;;;;;;5057884;28;20407;-76
2021/12/08 03:49:12;;;;;;;16.45;4.30;;;5.90;99.90;;;;;;5056854;28;20021;-76
2021/12/08 03:51:41;;;;;;;16.50;4.25;;;5.90;99.90;;;;;;5058087;28;20023;-76
2021/12/08 03:54:08;;;;;;;10.05;3.40;;;5.90;99.90;;;;;;5058119;28;20027;-76
2021/12/08 03:56:34;;;;;;;10.82;3.30;;;5.90;99.90;;;;;;5058071;28;20033;-75
2021/12/08 03:59:04;;;;;;;11.80;3.45;;;6.00;99.90;;;;;;5058130;28;20029;-76
2021/12/08 04:01:30;;;;;;;9.10;3.53;;;6.10;99.90;;;;;;5057681;28;20083;-76
2021/12/08 04:04:01;;;;;;;16.27;4.80;;;6.00;99.90;;;;;;5058005;28;20025;-76
2021/12/08 04:06:34;;;;;;;10.05;3.03;;;6.10;99.90;;;;;;5057975;28;20053;-76
2021/12/08 04:09:04;;;;;;;11.70;3.00;;;6.20;99.90;;;;;;5056502;28;20036;-76
2021/12/08 04:11:33;;;;;;;10.57;3.30;;;6.30;99.90;;;;;;5056663;28;20025;-76
2021/12/08 04:14:05;;;;;;;8.88;2.90;;;6.30;99.90;;;;;;5057969;28;20557;-76
2021/12/08 04:16:54;;;;;;;8.63;3.88;;;6.40;99.90;;;;;;5058021;28;20082;-75
2021/12/08 04:19:24;;;;;;;11.25;3.70;;;6.40;99.90;;;;;;5057968;28;20107;-76
2021/12/08 04:21:55;;;;;;;11.77;3.70;;;6.40;99.90;;;;;;5057817;28;20037;-76
2021/12/08 04:24:27;;;;;;;10.55;2.60;;;6.40;99.90;;;;;;5057578;28;20105;-76
2021/12/08 04:27:00;;;;;;;9.73;2.92;;;6.40;99.90;;;;;;5057710;28;20569;-76
2021/12/08 04:29:30;;;;;;;9.55;2.95;;;6.30;99.90;;;;;;5057826;28;20094;-76
2021/12/08 04:31:57;;;;;;;7.60;2.50;;;6.20;99.90;;;;;;5057897;28;20029;-76
2021/12/08 04:34:27;;;;;;;13.75;3.30;;;6.20;99.90;;;;;;5057747;28;20024;-76
2021/12/08 04:37:02;;;;;;;7.10;2.78;;;6.20;99.90;;;;;;5057563;28;20013;-76
2021/12/08 04:39:52;;;;;;;9.07;2.70;;;6.10;99.90;;;;;;5057649;28;20032;-76
2021/12/08 04:42:32;;;;;;;7.85;2.95;;;6.10;99.90;;;;;;5052729;28;20557;-76
2021/12/08 04:45:14;;;;;;;10.25;3.25;;;6.10;99.90;;;;;;5052999;28;20364;-76
2021/12/08 04:48:10;;;;;;;13.00;3.30;;;6.00;99.90;;;;;;5054488;28;20033;-75
2021/12/08 04:51:11;;;;;;;12.50;3.50;;;6.00;99.90;;;;;;5045964;28;20091;-76
2021/12/08 04:53:43;;;;;;;11.50;2.85;;;6.00;99.90;;;;;;5034233;28;20411;-76
2021/12/08 05:02:31;;;;;;;11.00;3.40;;;5.90;99.90;;;;;;5034336;28;20388;-75
2021/12/08 05:07:50;;;;;;;11.02;2.08;;;5.90;99.90;;;;;;5034171;28;20099;-76
2021/12/08 05:10:24;;;;;;;15.63;2.15;;;5.80;99.90;;;;;;5033983;28;20551;-76
2021/12/08 05:12:52;;;;;;;7.57;2.15;;;5.80;99.90;;;;;;5033708;28;20116;-76
2021/12/08 05:15:21;;;;;;;8.80;2.00;;;5.70;99.90;;;;;;5033772;28;20029;-76
2021/12/08 05:17:56;;;;;;;14.52;2.25;;;5.60;99.90;;;;;;5033879;28;20490;-76
2021/12/08 05:20:47;;;;;;;13.88;2.13;;;5.50;99.90;;;;;;5033766;28;20033;-76
2021/12/08 05:23:29;;;;;;;10.40;1.77;;;5.70;99.90;;;;;;5033352;28;20014;-76
2021/12/08 05:25:57;;;;;;;5.38;1.60;;;5.60;99.90;;;;;;5033768;28;20030;-76
2021/12/08 05:28:33;;;;;;;9.02;1.77;;;5.60;99.90;;;;;;5033685;28;20571;-76
2021/12/08 05:31:05;;;;;;;9.65;1.80;;;5.50;99.90;;;;;;5033587;28;20507;-76
2021/12/08 05:36:39;;;;;;;8.77;1.92;;;5.50;99.90;;;;;;5050549;28;20073;-76
2021/12/08 05:39:19;;;;;;;7.22;1.50;;;5.60;99.90;;;;;;5051174;28;20592;-76
2021/12/08 05:41:48;;;;;;;6.20;1.55;;;5.60;99.90;;;;;;5051115;28;20470;-76
2021/12/08 05:44:14;;;;;;;10.00;1.75;;;5.50;99.90;;;;;;5051129;28;20116;-76
2021/12/08 05:46:42;;;;;;;8.38;1.23;;;5.60;99.90;;;;;;5050196;28;20059;-76
2021/12/08 05:49:18;;;;;;;6.55;1.60;;;5.60;99.90;;;;;;5050734;28;20116;-76
2021/12/08 05:51:46;;;;;;;16.75;1.75;;;5.60;99.90;;;;;;5050665;28;20542;-76
2021/12/08 05:54:22;;;;;;;6.32;1.52;;;5.50;99.90;;;;;;5050289;28;20040;-76
2021/12/08 05:56:54;;;;;;;12.45;3.13;;;5.60;99.90;;;;;;5050559;28;20399;-76
2021/12/08 05:59:21;;;;;;;7.82;1.92;;;5.50;99.90;;;;;;5050677;28;20519;-75
2021/12/08 06:02:01;;;;;;;8.35;1.67;;;5.40;99.90;;;;;;5050689;28;20044;-76
2021/12/08 06:04:28;;;;;;;10.77;1.60;;;5.30;99.90;;;;;;5050635;28;20025;-76
2021/12/08 06:06:55;;;;;;;5.40;1.33;;;5.40;99.90;;;;;;5050493;28;20033;-76
2021/12/08 06:09:28;;;;;;;10.15;1.75;;;5.30;99.90;;;;;;5050577;28;20072;-76
2021/12/08 06:12:00;;;;;;;6.50;1.33;;;5.30;99.90;;;;;;5050708;28;20017;-76
2021/12/08 06:14:39;;;;;;;10.02;1.80;;;5.30;99.90;;;;;;5052613;28;20605;-76
2021/12/08 06:17:18;;;;;;;9.15;1.60;;;5.20;99.90;;;;;;5051413;28;20119;-76
2021/12/08 06:19:45;;;;;;;11.23;1.70;;;5.10;99.90;;;;;;5050996;28;20036;-76
2021/12/08 06:22:12;;;;;;;11.93;1.58;;;5.10;99.90;;;;;;5052427;28;20143;-76
2021/12/08 06:24:39;;;;;;;10.75;1.60;;;5.10;99.90;;;;;;5050768;28;20546;-76
2021/12/08 06:27:17;;;;;;;8.60;2.25;;;5.00;99.90;;;;;;5052455;28;20444;-77
2021/12/08 06:29:49;;;;;;;9.07;1.90;;;5.00;99.90;;;;;;5052646;28;20021;-76
2021/12/08 06:32:17;;;;;;;7.00;1.27;;;5.00;99.90;;;;;;5052412;28;20017;-76
2021/12/08 06:34:46;;;;;;;7.63;1.65;;;5.00;99.90;;;;;;5052221;28;20037;-76
2021/12/08 06:37:17;;;;;;;11.23;2.65;;;4.90;99.90;;;;;;5050986;28;20036;-75
2021/12/08 06:39:59;;;;;;;12.13;2.17;;;4.90;99.90;;;;;;5052189;28;20107;-76
2021/12/08 06:42:33;;;;;;;5.50;1.58;;;4.90;99.90;;;;;;5052506;28;20479;-76
2021/12/08 06:45:03;;;;;;;7.53;1.70;;;4.80;99.90;;;;;;5051934;28;20106;-76
2021/12/08 06:47:33;;;;;;;11.82;1.67;;;4.80;99.90;;;;;;5052274;28;20456;-76
2021/12/08 06:50:07;;;;;;;9.45;1.70;;;4.80;99.90;;;;;;5047277;28;20044;-76
2021/12/08 06:52:38;;;;;;;14.57;1.50;;;4.80;99.90;;;;;;5030664;28;20036;-76
2021/12/08 06:55:15;;;;;;;10.35;1.85;;;4.80;99.90;;;;;;5032155;28;20037;-75
2021/12/08 06:57:49;;;;;;;13.40;1.77;;;4.80;99.90;;;;;;5030694;28;20429;-76
2021/12/08 07:00:46;;;;;;;7.60;1.52;;;4.70;99.90;;;;;;5032120;28;20029;-76
2021/12/08 07:08:37;;;;;;;19.67;1.60;;;4.60;99.90;;;;;;5031950;28;20079;-76
2021/12/08 07:11:08;;;;;;;8.00;1.35;;;4.60;99.90;;;;;;5031982;28;20079;-76
2021/12/08 07:13:34;;;;;;;13.65;1.95;;;4.60;99.90;;;;;;5031701;28;20021;-75
2021/12/08 07:16:20;;;;;;;12.45;1.90;;;4.60;99.90;;;;;;5031625;28;20391;-76
2021/12/08 07:19:08;;;;;;;13.70;2.60;;;4.40;99.90;;;;;;5030702;28;20403;-76
2021/12/08 07:21:44;;;;;;;9.55;1.58;;;4.50;99.90;;;;;;5031599;28;20411;-76
2021/12/08 07:24:18;;;;;;;17.38;1.98;;;4.70;99.90;;;;;;5031490;28;20079;-76
2021/12/08 07:26:53;;;;;;;11.60;1.88;;;4.60;99.90;;;;;;5030246;28;20509;-76
2021/12/08 07:29:28;;;;;;;10.40;1.45;;;4.70;99.90;;;;;;5031707;28;20519;-76
2021/12/08 07:32:01;;;;;;;6.80;1.30;;;4.70;99.90;;;;;;5031776;28;20033;-76
2021/12/08 07:34:26;;;;;;;;;;;4.70;99.90;;;;;;5044414;28;20347;-76
2021/12/08 07:40:14;;;;;;;15.32;2.70;;;4.80;99.90;;;;;;5051384;28;20075;-76
2021/12/08 07:42:53;;;;;;;17.33;2.00;;;4.80;99.90;;;;;;5050324;28;20450;-76
2021/12/08 07:45:31;;;;;;;7.20;1.70;;;5.00;99.90;;;;;;5051289;28;20423;-78
2021/12/08 07:48:03;;;;;;;13.15;1.88;;;5.10;99.90;;;;;;5051358;28;20013;-75
2021/12/08 07:50:36;;;;;;;17.60;3.42;;;5.20;99.90;;;;;;5051323;28;20017;-76
2021/12/08 07:53:14;;;;;;;;;;;5.20;99.90;;;;;;5050527;28;20393;-76
2021/12/08 07:55:44;;;;;;;14.38;2.15;;;5.20;99.90;;;;;;5082580;28;19909;-76
2021/12/08 07:58:12;;;;;;;15.50;1.90;;;5.20;99.90;;;;;;5051215;28;20376;-76
2021/12/08 08:00:57;;;;;;;10.35;1.75;;;5.20;99.90;;;;;;5050829;28;20096;-76
2021/12/08 08:03:26;;;;;;;15.27;1.67;;;5.10;99.90;;;;;;5048271;28;20036;-76
2021/12/08 08:05:56;;;;;;;14.77;1.67;;;5.10;99.90;;;;;;5050865;28;20363;-76
2021/12/08 08:08:29;;;;;;;13.52;1.95;;;5.10;99.90;;;;;;5050647;28;20021;-76
2021/12/08 08:11:19;;;;;;;11.25;1.55;;;5.10;99.90;;;;;;5050288;28;20025;-76
2021/12/08 08:13:49;;;;;;;11.73;1.70;;;5.00;99.90;;;;;;5047637;28;20352;-76
2021/12/08 08:16:19;;;;;;;8.57;1.23;;;5.00;99.90;;;;;;5051293;28;20021;-76
2021/12/08 08:19:06;;;;;;;16.05;1.85;;;4.90;99.90;;;;;;5054943;28;20017;-76
2021/12/08 08:21:38;;;;;;;10.15;1.42;;;5.10;99.90;;;;;;5054785;28;20017;-76
2021/12/08 08:24:16;;;;;;;15.43;1.77;;;5.10;99.90;;;;;;5054608;28;20032;-76
2021/12/08 08:26:45;;;;;;;11.48;1.77;;;5.10;99.90;;;;;;5049788;28;20059;-76
2021/12/08 08:29:18;;;;;;;7.68;1.50;;;5.00;99.90;;;;;;5053077;28;20071;-76
2021/12/08 08:32:08;;;;;;;12.70;2.10;;;4.90;99.90;;;;;;5054520;28;20075;-76
2021/12/08 08:34:41;;;;;;;18.52;2.42;;;4.90;99.90;;;;;;5052665;28;20037;-76
2021/12/08 08:37:11;;;;;;;11.80;2.13;;;4.90;99.90;;;;;;5050466;28;20017;-76
2021/12/08 08:39:45;;;;;;;14.55;2.47;;;4.90;99.90;;;;;;5054317;28;20037;-76
2021/12/08 08:42:24;;;;;;;11.70;2.20;;;4.90;99.90;;;;;;5052480;28;20055;-76
2021/12/08 08:45:09;;;;;;;12.80;1.95;;;4.80;99.90;;;;;;5053055;28;20102;-75
2021/12/08 08:51:08;;;;;;;12.20;2.05;;;4.80;99.90;;;;;;5045330;28;20029;-78
2021/12/08 08:53:39;;;;;;;7.47;1.70;;;4.80;99.90;;;;;;5045749;28;20491;-78
2021/12/08 08:56:29;;;;;;;11.48;2.42;;;4.80;99.90;;;;;;5042989;28;20045;-79
2021/12/08 08:59:13;;;;;;;13.75;1.67;;;4.90;99.90;;;;;;4951018;28;20056;-78
2021/12/08 09:01:50;;;;;;;8.32;1.48;;;4.90;99.90;;;;;;4962917;28;20039;-79
2021/12/08 09:04:34;;;;;;;7.03;1.83;;;5.00;99.90;;;;;;4963783;28;20031;-78
2021/12/08 09:07:11;;;;;;;13.07;1.63;;;5.00;99.90;;;;;;4960707;28;20053;-81
2021/12/08 09:10:05;;;;;;;12.25;1.77;;;5.00;99.90;;;;;;4964943;28;20370;-78
2021/12/08 09:12:42;;;;;;;11.93;1.65;;;5.10;99.90;;;;;;4946035;28;20132;-78
2021/12/08 09:15:17;;;;;;;8.93;1.95;;;5.10;99.90;;;;;;4963279;28;20525;-78
2021/12/08 09:17:57;;;;;;;6.82;1.30;;;5.20;99.90;;;;;;4964217;28;20370;-78
2021/12/08 09:20:56;;;;;;;13.68;2.13;;;5.10;99.90;;;;;;4967246;28;20077;-78
2021/12/08 09:23:37;;;;;;;14.57;2.20;;;5.20;99.90;;;;;;4960005;28;20497;-79
2021/12/08 09:26:10;;;;;;;10.13;1.60;;;5.20;99.90;;;;;;4957446;28;20027;-78
2021/12/08 09:28:44;;;;;;;11.60;1.80;;;5.20;99.90;;;;;;4984062;28;20042;-78
2021/12/08 09:31:29;;;;;;;9.07;1.73;;;5.20;99.90;;;;;;4991975;28;20038;-79
2021/12/08 09:34:19;;;;;;;11.07;1.55;;;5.30;99.90;;;;;;4989985;28;20030;-79
2021/12/08 09:36:49;;;;;;;11.10;2.20;;;5.40;99.90;;;;;;5037739;28;20357;-80
2021/12/08 09:39:30;;;;;;;8.40;1.70;;;5.50;99.90;;;;;;5051832;28;20020;-80
2021/12/08 09:41:58;;;;;;;9.15;1.83;;;5.60;99.90;;;;;;5053569;28;20021;-77
2021/12/08 09:44:29;;;;;;;8.43;2.03;;;5.50;99.90;;;;;;5052565;28;20025;-77
2021/12/08 09:46:55;;;;;;;9.23;1.70;;;5.50;99.90;;;;;;5053376;28;20124;-80
2021/12/08 09:49:24;;;;;;;9.07;1.95;;;5.50;99.90;;;;;;5053586;28;20021;-78
2021/12/08 09:51:54;;;;;;;4.35;1.23;;;5.50;99.90;;;;;;5053421;28;20021;-78
2021/12/08 09:54:25;;;;;;;3.58;1.00;;;5.60;99.90;;;;;;5052929;28;20044;-78
2021/12/08 09:56:53;;;;;;;12.25;1.85;;;5.60;99.90;;;;;;5053844;28;20102;-80
2021/12/08 09:59:32;;;;;;;8.32;1.48;;;5.70;99.90;;;;;;5052766;28;20025;-78
2021/12/08 10:02:02;;;;;;;11.18;1.48;;;5.80;99.90;;;;;;5052525;28;20029;-80
2021/12/08 10:04:27;;;;;;;18.25;1.60;;;5.80;99.90;;;;;;5053609;28;20421;-78
2021/12/08 10:06:59;;;;;;;10.82;2.47;;;5.80;99.90;;;;;;5053552;28;20036;-78
2021/12/08 10:09:24;;;;;;;9.73;1.45;;;5.80;99.90;;;;;;5053842;28;20033;-78
2021/12/08 10:11:54;;;;;;;7.05;1.58;;;5.80;99.90;;;;;;5053808;28;20028;-78
2021/12/08 10:14:20;;;;;;;6.03;1.45;;;5.80;99.90;;;;;;5053593;28;20048;-81
2021/12/08 10:16:48;;;;;;;8.63;1.70;;;5.80;99.90;;;;;;5053260;28;20033;-77
2021/12/08 10:19:17;;;;;;;7.95;1.33;;;;;;;;;;5053651;28;20035;-79
2021/12/08 10:21:43;;;;;;;6.38;1.50;;;5.90;99.90;;;;;;5053319;28;20418;-78
2021/12/08 10:24:16;;;;;;;8.45;1.30;;;5.90;99.90;;;;;;5052883;28;20029;-78
2021/12/08 10:26:41;;;;;;;;;;;6.00;99.90;;;;;;5053771;28;20411;-77
2021/12/08 10:29:08;;;;;;;12.63;1.95;;;6.10;99.90;;;;;;5053516;28;19927;-76
2021/12/08 10:31:44;;;;;;;7.78;1.83;;;6.10;99.90;;;;;;5052924;28;20076;-76
2021/12/08 10:36:53;;;;;;;7.22;1.42;;;6.20;99.90;;;;;;5052247;28;20099;-75
2021/12/08 10:39:30;;;;;;;8.88;1.58;;;6.20;99.90;;;;;;5051390;28;20025;-76
2021/12/08 10:42:01;;;;;;;16.13;2.25;;;6.20;99.90;;;;;;5032355;28;20083;-76
2021/12/08 10:44:53;;;;;;;7.68;1.38;;;6.20;99.90;;;;;;5032040;28;20040;-76
2021/12/08 10:47:21;;;;;;;6.40;1.73;;;6.20;99.90;;;;;;5032083;28;20081;-75
2021/12/08 10:55:11;;;;;;;4.85;1.30;;;6.30;99.90;;;;;;5031661;28;20407;-75
2021/12/08 10:57:38;;;;;;;6.43;1.30;;;6.40;99.90;;;;;;5031707;28;20078;-75
2021/12/08 11:00:20;;;;;;;3.75;0.90;;;6.50;99.90;;;;;;5030607;28;20026;-75
2021/12/08 11:02:54;;;;;;;6.43;1.60;;;6.50;99.90;;;;;;5031884;28;20026;-75
2021/12/08 11:05:25;;;;;;;8.18;1.38;;;6.60;99.90;;;;;;5031880;28;20057;-76
2021/12/08 11:08:02;;;;;;;7.72;1.45;;;6.60;99.90;;;;;;5032281;28;20026;-75
2021/12/08 11:10:29;;;;;;;6.97;1.45;;;6.60;99.90;;;;;;5032060;28;20021;-75
2021/12/08 11:12:57;;;;;;;3.50;1.08;;;6.70;99.90;;;;;;5030693;28;20036;-75
2021/12/08 11:15:24;;;;;;;5.65;1.10;;;6.70;99.90;;;;;;5030332;28;20442;-75
2021/12/08 11:18:11;;;;;;;5.75;1.13;;;6.70;99.90;;;;;;5031890;28;20025;-76
2021/12/08 11:20:54;;;;;;;7.45;1.20;;;6.60;99.90;;;;;;5030259;28;20033;-73
2021/12/08 11:23:28;;;;;;;;;;;;;;;;;;5047883;28;20029;-72
2021/12/08 11:25:56;;;;;;;17.15;2.13;;;6.80;99.90;;;;;;5051645;28;20428;-74
2021/12/08 11:28:24;;;;;;;5.63;1.10;;;7.00;99.90;;;;;;5051090;28;20036;-73
2021/12/08 11:30:52;;;;;;;7.03;1.35;;;7.00;99.90;;;;;;5047748;28;20119;-73
2021/12/08 11:33:21;;;;;;;5.45;1.13;;;6.90;99.90;;;;;;5051115;28;20021;-74
2021/12/08 11:35:48;;;;;;;7.45;1.40;;;6.90;99.90;;;;;;5050921;28;20032;-75
2021/12/08 11:38:23;;;;;;;7.72;1.45;;;6.90;99.90;;;;;;5051178;28;20036;-74
2021/12/08 11:40:48;;;;;;;5.85;1.60;;;6.90;99.90;;;;;;5047776;28;20029;-74
2021/12/08 11:43:14;;;;;;;7.43;1.63;;;6.90;99.90;;;;;;5051004;28;20020;-74
2021/12/08 11:45:42;;;;;;;5.95;1.27;;;6.90;99.90;;;;;;5051007;28;20132;-74
2021/12/08 11:48:25;;;;;;;7.28;1.70;;;6.90;99.90;;;;;;5051130;28;20021;-75
2021/12/08 11:51:10;;;;;;;5.90;1.42;;;7.00;99.90;;;;;;5051879;28;20025;-74
2021/12/08 11:53:38;;;;;;;9.00;1.48;;;7.00;99.90;;;;;;5055702;28;20086;-74
2021/12/08 11:56:04;;;;;;;11.25;1.70;;;7.00;99.90;;;;;;5054178;28;20032;-74
2021/12/08 11:58:30;;;;;;;9.35;1.90;;;7.00;99.90;;;;;;5055219;28;20406;-74
2021/12/08 12:00:56;;;;;;;8.32;1.30;;;7.20;99.90;;;;;;5055417;28;20104;-76
2021/12/08 12:03:22;;;;;;;5.05;1.40;;;7.20;99.90;;;;;;5055189;28;20025;-75
2021/12/08 12:05:49;;;;;;;6.03;1.50;;;7.10;99.90;;;;;;5055198;28;20017;-75
2021/12/08 12:08:22;;;;;;;4.07;1.30;;;7.00;99.90;;;;;;5057073;28;20047;-74
2021/12/08 12:10:51;;;;;;;5.75;1.75;;;7.10;99.90;;;;;;5049699;28;20036;-75
2021/12/08 12:13:18;;;;;;;10.52;2.13;;;7.10;99.90;;;;;;5054722;28;20083;-75
2021/12/08 12:15:47;;;;;;;6.50;1.60;;;7.20;99.90;;;;;;5053473;28;20029;-75
2021/12/08 12:18:15;;;;;;;6.10;2.15;;;7.20;99.90;;;;;;5046217;28;20063;-75
2021/12/08 12:20:43;;;;;;;7.97;1.40;;;7.30;99.90;;;;;;5044897;28;20082;-75
2021/12/08 12:23:44;;;;;;;7.30;1.80;;;7.40;99.90;;;;;;5042180;28;20037;-75
2021/12/08 12:26:37;;;;;;;10.20;2.05;;;7.30;99.90;;;;;;5049033;28;20555;-75
2021/12/08 12:29:24;;;;;;;8.25;1.70;;;7.30;99.90;;;;;;5045044;28;20026;-75
2021/12/08 12:32:04;;;;;;;10.07;1.85;;;7.30;99.90;;;;;;5048344;28;20026;-75
2021/12/08 12:34:35;;;;;;;6.38;1.50;;;7.30;99.90;;;;;;5040822;28;20044;-75
2021/12/08 12:37:26;;;;;;;9.63;1.80;;;7.30;99.90;;;;;;5039562;28;20044;-75
2021/12/08 12:39:56;;;;;;;6.72;1.77;;;7.30;99.90;;;;;;5045710;28;20028;-75
2021/12/08 12:42:23;;;;;;;9.73;3.45;;;7.20;99.90;;;;;;5047372;28;20086;-75
2021/12/08 12:44:58;;;;;;;4.63;1.50;;;7.10;99.90;;;;;;5046714;28;20086;-75
2021/12/08 12:47:29;;;;;;;9.00;1.60;;;7.10;99.90;;;;;;5042174;28;20530;-75
2021/12/08 12:50:00;;;;;;;7.20;1.58;;;7.10;99.90;;;;;;5054688;28;20552;-75
2021/12/08 12:52:39;;;;;;;6.47;1.37;;;7.20;99.90;;;;;;5049797;28;20244;-75
2021/12/08 12:55:06;;;;;;;11.25;2.35;;;7.10;99.90;;;;;;5048068;28;20486;-75
2021/12/08 12:57:32;;;;;;;8.18;1.83;;;7.00;99.90;;;;;;5048656;28;20040;-75
2021/12/08 12:59:57;;;;;;;6.63;1.30;;;7.10;99.90;;;;;;5049166;28;20033;-75
2021/12/08 13:02:34;;;;;;;9.52;1.50;;;7.20;99.90;;;;;;5046727;28;20491;-75
2021/12/08 13:05:08;;;;;;;14.43;2.67;;;7.30;99.90;;;;;;5051082;28;20473;-75
2021/12/08 13:07:39;;;;;;;5.35;1.50;;;7.30;99.90;;;;;;5046717;28;20364;-76
2021/12/08 13:10:13;;;;;;;6.75;1.73;;;7.30;99.90;;;;;;5059777;28;20024;-77
2021/12/08 13:12:45;;;;;;;12.45;2.42;;;7.30;99.90;;;;;;5062710;28;20021;-78
2021/12/08 13:15:19;;;;;;;9.23;1.63;;;7.30;99.90;;;;;;5056283;28;20112;-75
2021/12/08 13:18:13;;;;;;;8.65;1.80;;;7.30;99.90;;;;;;5049238;28;20033;-76
2021/12/08 13:20:41;;;;;;;10.85;2.03;;;7.30;99.90;;;;;;5045480;28;20076;-77
2021/12/08 13:23:10;;;;;;;9.13;2.08;;;7.20;99.90;;;;;;5047470;28;20020;-77
2021/12/08 13:25:46;;;;;;;6.07;1.65;;;7.20;99.90;;;;;;5049084;28;20107;-77
2021/12/08 13:28:36;;;;;;;9.02;1.85;;;7.20;99.90;;;;;;5048753;28;20019;-77
2021/12/08 13:31:26;;;;;;;12.23;1.70;;;7.20;99.90;;;;;;5054477;28;20025;-77
2021/12/08 13:33:52;;;;;;;7.05;1.60;;;7.30;99.90;;;;;;5055514;28;20081;-77
2021/12/08 13:36:20;;;;;;;10.52;2.25;;;7.40;99.90;;;;;;5048369;28;20026;-77
2021/12/08 13:38:53;;;;;;;9.95;1.95;;;7.50;99.90;;;;;;5073161;28;20117;-77
2021/12/08 13:41:20;;;;;;;12.18;2.03;;;7.40;99.90;;;;;;5048936;28;20056;-77
2021/12/08 13:43:49;;;;;;;12.48;1.83;;;7.30;99.90;;;;;;5052299;28;20079;-78
2021/12/08 13:46:54;;;;;;;7.57;2.83;;;7.30;99.90;;;;;;5043156;28;20037;-77
2021/12/08 13:49:27;;;;;;;8.10;1.70;;;7.10;99.90;;;;;;5004652;28;20053;-77
2021/12/08 13:52:02;;;;;;;10.02;1.90;;;7.00;99.90;;;;;;5005745;28;20498;-77
2021/12/08 13:54:30;;;;;;;6.53;1.55;;;7.10;99.90;;;;;;4993209;28;20109;-76
2021/12/08 13:56:57;;;;;;;6.88;1.70;;;7.00;99.90;;;;;;5031979;28;20125;-77
2021/12/08 13:59:52;;;;;;;7.03;1.65;;;6.90;99.90;;;;;;5001602;28;20469;-77
2021/12/08 14:02:24;;;;;;;9.77;1.73;;;7.00;99.90;;;;;;5008939;28;20069;-77
2021/12/08 14:04:58;;;;;;;14.43;2.22;;;7.00;99.90;;;;;;4995503;28;20034;-76
2021/12/08 14:07:24;;;;;;;10.90;2.50;;;7.00;99.90;;;;;;5015696;28;20038;-76
2021/12/08 14:09:58;;;;;;;8.68;1.95;;;6.90;99.90;;;;;;4999771;28;20068;-76
2021/12/08 14:12:24;;;;;;;12.07;2.17;;;6.90;99.90;;;;;;5005188;28;20019;-77
2021/12/08 14:14:57;;;;;;;8.23;2.40;;;6.90;99.90;;;;;;4987641;28;20030;-76
2021/12/08 14:17:28;;;;;;;8.63;2.22;;;6.90;99.90;;;;;;4999770;28;20042;-76
2021/12/08 14:19:54;;;;;;;6.72;1.90;;;6.80;99.90;;;;;;5004597;28;20026;-76